International Virtual Aviation Organisation

Russian Federation and Kazakhstan MCD

 
UUWW 281330Z 09002MPS 3500 BR OVC002 01/01 Q1023 R06/290050 TEMPO 1000 BR
QNH:(hPa/inHg/mmHg)1023 / 30.21 / 767
QFE:(hPa/inHg/mmHg)998 / 29.46 / 748
Temperature1
Dew Point1
Visibility1000
WeatherMist;Mist
Cloud CoverOVC (200);
Transition Height1200 m./4700 ft.
Transition LevelFL60
SQUAWK